createdAt,value
2019-05-07T00:00:07.420Z,0.00
2019-05-07T00:01:07.373Z,0.00
2019-05-07T00:02:07.328Z,0.00
2019-05-07T00:03:07.283Z,0.00
2019-05-07T00:04:07.230Z,0.00
2019-05-07T00:05:07.191Z,0.00
2019-05-07T00:06:07.136Z,0.00
2019-05-07T00:07:07.090Z,0.00
2019-05-07T00:08:07.044Z,0.00
2019-05-07T00:09:06.996Z,0.00
2019-05-07T00:10:06.946Z,0.00
2019-05-07T00:11:06.900Z,0.00
2019-05-07T00:12:06.884Z,0.00
2019-05-07T00:13:06.811Z,0.00
2019-05-07T00:14:06.761Z,0.00
2019-05-07T00:15:06.714Z,0.00
2019-05-07T00:16:06.666Z,0.00
2019-05-07T00:17:06.618Z,0.00
2019-05-07T00:18:06.570Z,0.00
2019-05-07T00:19:06.528Z,0.00
2019-05-07T00:20:06.478Z,0.00
2019-05-07T00:21:06.431Z,0.00
2019-05-07T00:22:06.389Z,0.00
2019-05-07T00:23:06.337Z,0.00
2019-05-07T00:24:06.290Z,0.00
2019-05-07T00:25:06.245Z,0.00
2019-05-07T00:26:06.199Z,0.00
2019-05-07T00:27:06.149Z,0.00
2019-05-07T00:28:06.103Z,0.00
2019-05-07T00:29:06.055Z,0.00
2019-05-07T00:30:06.009Z,0.00
2019-05-07T00:31:05.958Z,0.00
2019-05-07T00:32:05.913Z,0.00
2019-05-07T00:33:05.866Z,0.00
2019-05-07T00:34:05.823Z,0.00
2019-05-07T00:35:05.771Z,0.00
2019-05-07T00:36:05.725Z,0.00
2019-05-07T00:37:07.079Z,0.00
2019-05-07T00:38:05.629Z,0.00
2019-05-07T00:39:05.583Z,0.00
2019-05-07T00:40:05.535Z,0.00
2019-05-07T00:41:05.488Z,0.00
2019-05-07T00:42:05.441Z,0.00
2019-05-07T00:43:05.394Z,0.00
2019-05-07T00:44:05.346Z,0.00
2019-05-07T00:45:17.062Z,0.00
2019-05-07T00:46:05.257Z,0.00
2019-05-07T00:47:05.209Z,0.00
2019-05-07T00:48:05.159Z,0.00
2019-05-07T00:49:05.115Z,0.00
2019-05-07T00:50:05.065Z,0.00
2019-05-07T00:51:05.017Z,0.00
2019-05-07T00:52:04.969Z,0.00
2019-05-07T00:53:04.923Z,0.00
2019-05-07T00:54:04.876Z,0.00
2019-05-07T00:55:04.828Z,0.00
2019-05-07T00:56:04.785Z,0.00
2019-05-07T00:57:04.733Z,0.00
2019-05-07T00:58:04.691Z,0.00
2019-05-07T00:59:04.641Z,0.00
2019-05-07T01:00:04.593Z,0.00
2019-05-07T01:01:04.544Z,0.00
2019-05-07T01:02:04.498Z,0.00
2019-05-07T01:03:04.451Z,0.00
2019-05-07T01:04:04.404Z,0.00
2019-05-07T01:05:04.356Z,0.00
2019-05-07T01:06:04.310Z,0.00
2019-05-07T01:07:04.260Z,0.00
2019-05-07T01:08:04.219Z,0.00
2019-05-07T01:09:04.167Z,0.00
2019-05-07T01:10:04.118Z,0.00
2019-05-07T01:11:04.073Z,0.00
2019-05-07T01:12:04.025Z,0.00
2019-05-07T01:13:03.980Z,0.00
2019-05-07T01:14:03.932Z,0.00
2019-05-07T01:15:03.888Z,0.00
2019-05-07T01:16:03.841Z,0.00
2019-05-07T01:17:03.791Z,0.00
2019-05-07T01:18:03.742Z,0.00
2019-05-07T01:19:03.694Z,0.00
2019-05-07T01:20:03.647Z,0.00
2019-05-07T01:21:03.607Z,0.00
2019-05-07T01:22:03.555Z,0.00
2019-05-07T01:23:03.509Z,0.00
2019-05-07T01:24:03.518Z,0.00
2019-05-07T01:25:03.412Z,0.00
2019-05-07T01:26:03.364Z,0.00
2019-05-07T01:27:03.314Z,0.00
2019-05-07T01:28:03.267Z,0.00
2019-05-07T01:29:03.517Z,0.00
2019-05-07T01:30:03.172Z,0.00
2019-05-07T01:31:03.126Z,0.00
2019-05-07T01:32:03.204Z,0.00
2019-05-07T01:33:03.031Z,0.00
2019-05-07T01:34:02.982Z,0.00
2019-05-07T01:35:02.950Z,0.00
2019-05-07T01:36:02.889Z,0.00
2019-05-07T01:37:02.840Z,0.00
2019-05-07T01:38:03.190Z,0.00
2019-05-07T01:39:02.747Z,0.00
2019-05-07T01:40:03.211Z,0.00
2019-05-07T01:41:02.953Z,0.00
2019-05-07T01:42:02.606Z,0.00
2019-05-07T01:44:02.512Z,0.00
2019-05-07T01:45:02.538Z,0.00
2019-05-07T01:46:03.157Z,0.00
2019-05-07T01:47:02.695Z,0.00
2019-05-07T01:48:04.368Z,0.00
2019-05-07T01:49:03.031Z,0.00
2019-05-07T01:50:03.010Z,0.00
2019-05-07T01:51:03.462Z,0.00
2019-05-07T01:52:02.591Z,0.00
2019-05-07T01:53:03.904Z,0.00
2019-05-07T01:54:02.374Z,0.00
2019-05-07T01:55:03.242Z,0.00
2019-05-07T01:56:03.328Z,0.00
2019-05-07T01:57:02.850Z,0.00
2019-05-07T01:58:04.611Z,0.00
2019-05-07T01:59:02.423Z,0.00
2019-05-07T02:00:02.584Z,0.00
2019-05-07T02:01:02.742Z,0.00
2019-05-07T02:02:03.020Z,0.00
2019-05-07T02:03:02.833Z,0.00
2019-05-07T02:04:02.343Z,0.00
2019-05-07T02:05:03.206Z,0.00
2019-05-07T02:06:02.233Z,0.00
2019-05-07T02:07:02.829Z,0.00
2019-05-07T02:08:02.937Z,0.00
2019-05-07T02:09:02.380Z,0.00
2019-05-07T02:10:02.859Z,0.00
2019-05-07T02:11:02.119Z,0.00
2019-05-07T02:12:02.459Z,0.00
2019-05-07T02:13:02.237Z,0.00
2019-05-07T02:14:02.029Z,0.00
2019-05-07T02:15:02.677Z,0.00
2019-05-07T02:16:03.747Z,0.00
2019-05-07T02:17:03.011Z,0.00
2019-05-07T02:18:01.969Z,0.00
2019-05-07T02:19:02.200Z,0.00
2019-05-07T02:20:02.679Z,0.00
2019-05-07T02:21:03.050Z,0.00
2019-05-07T02:22:02.825Z,0.00
2019-05-07T02:23:02.596Z,0.00
2019-05-07T02:24:00.606Z,0.00
2019-05-07T02:25:00.551Z,0.00
2019-05-07T02:26:02.411Z,0.00
2019-05-07T02:27:02.833Z,0.00
2019-05-07T02:28:02.201Z,0.00
2019-05-07T02:29:02.562Z,0.00
2019-05-07T02:30:03.670Z,0.00
2019-05-07T02:31:00.272Z,0.00
2019-05-07T02:32:00.241Z,0.00
2019-05-07T02:33:03.401Z,0.00
2019-05-07T02:34:02.664Z,0.00
2019-05-07T02:35:03.664Z,0.00
2019-05-07T02:36:02.829Z,0.00
2019-05-07T02:38:02.899Z,0.00
2019-05-07T02:38:59.881Z,0.00
2019-05-07T02:39:59.833Z,0.00
2019-05-07T02:41:02.696Z,0.00
2019-05-07T02:41:59.737Z,0.00
2019-05-07T02:43:02.678Z,0.00
2019-05-07T02:44:03.189Z,0.00
2019-05-07T02:44:59.596Z,0.00
2019-05-07T02:46:17.373Z,0.00
2019-05-07T02:46:59.499Z,0.00
2019-05-07T02:47:59.447Z,0.00
2019-05-07T02:48:59.401Z,0.00
2019-05-07T02:50:02.788Z,0.00
2019-05-07T02:50:59.305Z,0.00
2019-05-07T02:51:59.256Z,0.00
2019-05-07T02:52:59.208Z,0.00
2019-05-07T02:53:59.158Z,0.00
2019-05-07T02:54:59.111Z,0.00
2019-05-07T02:55:59.063Z,0.00
2019-05-07T02:56:59.022Z,0.00
2019-05-07T02:57:58.967Z,0.00
2019-05-07T02:58:58.919Z,0.00
2019-05-07T02:59:58.879Z,0.00
2019-05-07T03:00:58.823Z,0.00
2019-05-07T03:01:58.778Z,0.00
2019-05-07T03:02:58.730Z,0.00
2019-05-07T03:03:58.680Z,0.00
2019-05-07T03:04:58.630Z,0.00
2019-05-07T03:05:58.581Z,0.00
2019-05-07T03:06:58.541Z,0.00
2019-05-07T03:07:58.486Z,0.00
2019-05-07T03:08:58.446Z,0.00
2019-05-07T03:09:58.407Z,0.00
2019-05-07T03:10:58.346Z,0.00
2019-05-07T03:11:58.293Z,0.00
2019-05-07T03:12:58.245Z,0.00
2019-05-07T03:13:58.198Z,0.00
2019-05-07T03:14:58.149Z,0.00
2019-05-07T03:15:58.108Z,0.00
2019-05-07T03:16:58.054Z,0.00
2019-05-07T03:17:58.001Z,0.00
2019-05-07T03:18:57.957Z,0.00
2019-05-07T03:19:57.913Z,0.00
2019-05-07T03:20:57.861Z,0.00
2019-05-07T03:22:57.762Z,0.00
2019-05-07T03:23:57.712Z,0.00
2019-05-07T03:24:57.665Z,0.00
2019-05-07T03:25:57.618Z,0.00
2019-05-07T03:26:57.574Z,0.00
2019-05-07T03:27:57.534Z,0.00
2019-05-07T03:28:57.479Z,0.00
2019-05-07T03:29:57.430Z,0.00
2019-05-07T03:30:57.485Z,0.00
2019-05-07T03:31:57.380Z,0.00
2019-05-07T03:32:57.283Z,0.00
2019-05-07T03:33:57.260Z,0.00
2019-05-07T03:34:58.241Z,0.00
2019-05-07T03:35:57.315Z,0.00
2019-05-07T03:36:57.525Z,0.00
2019-05-07T03:37:57.039Z,0.00
2019-05-07T03:38:56.989Z,0.00
2019-05-07T03:39:56.942Z,0.00
2019-05-07T03:40:56.893Z,0.00
2019-05-07T03:41:56.846Z,0.00
2019-05-07T03:42:56.803Z,0.00
2019-05-07T03:43:56.750Z,0.00
2019-05-07T03:44:56.703Z,0.00
2019-05-07T03:45:56.664Z,0.00
2019-05-07T03:47:02.351Z,0.00
2019-05-07T03:47:56.560Z,0.00
2019-05-07T03:48:56.509Z,0.00
2019-05-07T03:49:56.459Z,0.00
2019-05-07T03:50:56.418Z,0.00
2019-05-07T03:51:56.369Z,0.00
2019-05-07T03:52:56.315Z,0.00
2019-05-07T03:53:56.275Z,0.00
2019-05-07T03:54:56.219Z,0.00
2019-05-07T03:55:56.174Z,0.00
2019-05-07T03:56:56.126Z,0.00
2019-05-07T03:57:56.074Z,0.00
2019-05-07T03:58:56.028Z,0.00
2019-05-07T03:59:55.986Z,0.00
2019-05-07T04:00:55.932Z,0.00
2019-05-07T04:01:55.890Z,0.00
2019-05-07T04:02:55.835Z,0.00
2019-05-07T04:03:55.789Z,0.00
2019-05-07T04:04:55.739Z,0.00
2019-05-07T04:05:55.689Z,0.00
2019-05-07T04:06:55.644Z,0.00
2019-05-07T04:07:55.591Z,0.00
2019-05-07T04:08:55.549Z,0.00
2019-05-07T04:09:55.496Z,0.00
2019-05-07T04:10:55.451Z,0.00
2019-05-07T04:11:55.405Z,0.00
2019-05-07T04:12:55.361Z,0.00
2019-05-07T04:13:55.309Z,0.00
2019-05-07T04:14:55.255Z,0.00
2019-05-07T04:15:55.213Z,0.00
2019-05-07T04:17:04.704Z,0.00
2019-05-07T04:18:55.072Z,0.00
2019-05-07T04:19:55.043Z,0.00
2019-05-07T04:20:54.975Z,0.00
2019-05-07T04:21:54.920Z,0.00
2019-05-07T04:22:54.877Z,0.00
2019-05-07T04:23:54.831Z,0.00
2019-05-07T04:24:54.783Z,0.00
2019-05-07T04:25:54.728Z,0.00
2019-05-07T04:26:54.677Z,0.00
2019-05-07T04:27:54.643Z,0.00
2019-05-07T04:28:54.601Z,0.00
2019-05-07T04:29:54.551Z,0.00
2019-05-07T04:30:54.495Z,0.00
2019-05-07T04:31:54.440Z,5.63
2019-05-07T04:32:54.393Z,5.63
2019-05-07T04:33:54.358Z,5.63
2019-05-07T04:34:54.297Z,5.63
2019-05-07T04:35:54.249Z,5.63
2019-05-07T04:36:54.202Z,5.63
2019-05-07T04:37:54.151Z,5.63
2019-05-07T04:38:54.104Z,5.63
2019-05-07T04:39:54.204Z,5.63
2019-05-07T04:40:54.005Z,5.63
2019-05-07T04:41:53.960Z,5.63
2019-05-07T04:42:54.147Z,5.63
2019-05-07T04:43:54.291Z,5.63
2019-05-07T04:44:54.205Z,5.63
2019-05-07T04:45:53.972Z,5.63
2019-05-07T04:46:53.735Z,5.63
2019-05-07T04:47:53.998Z,5.63
2019-05-07T04:48:53.627Z,11.25
2019-05-07T04:49:53.876Z,11.25
2019-05-07T04:50:54.336Z,11.25
2019-05-07T04:51:53.482Z,11.25
2019-05-07T04:52:54.017Z,11.25
2019-05-07T04:53:54.082Z,11.25
2019-05-07T04:54:53.335Z,11.25
2019-05-07T04:55:53.795Z,11.25
2019-05-07T04:56:53.394Z,11.25
2019-05-07T04:57:53.526Z,16.88
2019-05-07T04:58:53.381Z,16.88
2019-05-07T04:59:53.402Z,16.88
2019-05-07T05:00:53.788Z,16.88
2019-05-07T05:01:53.381Z,16.88
2019-05-07T05:02:53.329Z,16.88
2019-05-07T05:03:54.031Z,16.88
2019-05-07T05:04:53.174Z,16.88
2019-05-07T05:05:53.438Z,16.88
2019-05-07T05:06:52.955Z,16.88
2019-05-07T05:07:53.312Z,16.88
2019-05-07T05:08:56.046Z,16.88
2019-05-07T05:09:53.284Z,16.88
2019-05-07T05:10:53.677Z,16.88
2019-05-07T05:11:53.162Z,16.88
2019-05-07T05:12:53.594Z,22.50
2019-05-07T05:13:53.340Z,22.50
2019-05-07T05:14:52.536Z,22.50
2019-05-07T05:15:52.860Z,22.50
2019-05-07T05:16:52.549Z,22.50
2019-05-07T05:17:54.062Z,22.50
2019-05-07T05:18:52.192Z,22.50
2019-05-07T05:19:52.598Z,22.50
2019-05-07T05:20:52.099Z,22.50
2019-05-07T05:21:52.847Z,22.50
2019-05-07T05:22:53.220Z,22.50
2019-05-07T05:23:52.388Z,22.50
2019-05-07T05:24:52.750Z,22.50
2019-05-07T05:25:52.305Z,22.50
2019-05-07T05:26:52.545Z,22.50
2019-05-07T05:27:52.392Z,22.50
2019-05-07T05:28:52.527Z,22.50
2019-05-07T05:29:52.086Z,22.50
2019-05-07T05:30:52.823Z,22.50
2019-05-07T05:31:52.899Z,28.13
2019-05-07T05:32:52.060Z,28.13
2019-05-07T05:33:52.635Z,28.13
2019-05-07T05:34:52.021Z,28.13
2019-05-07T05:35:52.567Z,28.13
2019-05-07T05:36:53.215Z,28.13
2019-05-07T05:37:52.083Z,28.13
2019-05-07T05:38:52.886Z,28.13
2019-05-07T05:40:03.328Z,28.13
2019-05-07T05:40:52.093Z,28.13
2019-05-07T05:41:51.854Z,28.13
2019-05-07T05:42:52.464Z,28.13
2019-05-07T05:43:52.727Z,28.13
2019-05-07T05:44:52.478Z,28.13
2019-05-07T05:45:52.904Z,33.75
2019-05-07T05:46:52.493Z,33.75
2019-05-07T05:48:03.951Z,33.75
2019-05-07T05:48:52.025Z,33.75
2019-05-07T05:49:50.719Z,33.75
2019-05-07T05:50:53.413Z,33.75
2019-05-07T05:51:52.531Z,33.75
2019-05-07T05:52:52.037Z,33.75
2019-05-07T05:53:52.419Z,39.38
2019-05-07T05:54:52.762Z,39.38
2019-05-07T05:55:52.695Z,39.38
2019-05-07T05:56:52.020Z,39.38
2019-05-07T05:57:51.959Z,39.38
2019-05-07T05:58:52.542Z,39.38
2019-05-07T05:59:54.422Z,39.38
2019-05-07T06:00:50.195Z,39.38
2019-05-07T06:01:52.040Z,39.38
2019-05-07T06:02:53.055Z,39.38
2019-05-07T06:03:51.963Z,39.38
2019-05-07T06:04:50.006Z,39.38
2019-05-07T06:05:52.175Z,39.38
2019-05-07T06:06:49.912Z,39.38
2019-05-07T06:07:51.987Z,39.38
2019-05-07T06:08:50.256Z,39.38
2019-05-07T06:09:49.769Z,39.38
2019-05-07T06:10:51.793Z,39.38
2019-05-07T06:11:51.934Z,39.38
2019-05-07T06:12:49.629Z,39.38
2019-05-07T06:13:49.580Z,39.38
2019-05-07T06:14:49.537Z,39.38
2019-05-07T06:15:49.489Z,39.38
2019-05-07T06:16:49.442Z,39.38
2019-05-07T06:17:49.470Z,39.38
2019-05-07T06:19:49.304Z,39.38
2019-05-07T06:20:49.256Z,39.38
2019-05-07T06:21:49.205Z,39.38
2019-05-07T06:22:49.161Z,39.38
2019-05-07T06:23:49.116Z,39.38
2019-05-07T06:24:49.070Z,39.38
2019-05-07T06:25:49.024Z,39.38
2019-05-07T06:26:48.972Z,39.38
2019-05-07T06:27:48.925Z,39.38
2019-05-07T06:28:48.878Z,39.38
2019-05-07T06:29:48.831Z,39.38
2019-05-07T06:30:48.785Z,39.38
2019-05-07T06:31:48.738Z,45.00
2019-05-07T06:32:48.691Z,45.00
2019-05-07T06:33:48.646Z,45.00
2019-05-07T06:34:48.599Z,45.00
2019-05-07T06:35:48.549Z,45.00
2019-05-07T06:36:48.503Z,45.00
2019-05-07T06:37:48.457Z,45.00
2019-05-07T06:38:48.409Z,45.00
2019-05-07T06:39:48.373Z,45.00
2019-05-07T06:40:48.320Z,45.00
2019-05-07T06:41:48.269Z,45.00
2019-05-07T06:42:48.223Z,45.00
2019-05-07T06:43:48.177Z,45.00
2019-05-07T06:44:48.134Z,45.00
2019-05-07T06:45:48.085Z,45.00
2019-05-07T06:46:48.036Z,50.63
2019-05-07T06:47:47.991Z,50.63
2019-05-07T06:48:47.944Z,50.63
2019-05-07T06:49:47.898Z,50.63
2019-05-07T06:50:47.850Z,50.63
2019-05-07T06:51:47.945Z,50.63
2019-05-07T06:52:47.757Z,50.63
2019-05-07T06:53:47.710Z,50.63
2019-05-07T06:54:47.666Z,50.63
2019-05-07T06:55:47.619Z,50.63
2019-05-07T06:56:49.006Z,50.63
2019-05-07T06:57:47.530Z,50.63
2019-05-07T06:58:47.480Z,50.63
2019-05-07T06:59:47.539Z,50.63
2019-05-07T07:02:14.752Z,50.63
2019-05-07T07:03:12.709Z,50.63
2019-05-07T07:04:12.964Z,50.63
2019-05-07T07:05:12.179Z,50.63
2019-05-07T07:06:12.216Z,50.63
2019-05-07T07:07:24.057Z,56.25
2019-05-07T07:08:12.461Z,56.25
2019-05-07T07:09:12.626Z,50.63
2019-05-07T07:10:12.057Z,50.63
2019-05-07T07:11:12.914Z,50.63
2019-05-07T07:12:12.921Z,56.25
2019-05-07T07:13:12.002Z,56.25
2019-05-07T07:14:11.964Z,61.88
2019-05-07T07:15:12.178Z,56.25
2019-05-07T07:16:12.705Z,61.88
2019-05-07T07:17:12.939Z,61.88
2019-05-07T07:18:12.264Z,61.88
2019-05-07T07:19:12.468Z,61.88
2019-05-07T07:20:12.674Z,61.88
2019-05-07T07:22:13.025Z,67.50
2019-05-07T07:23:11.799Z,67.50
2019-05-07T07:24:12.699Z,67.50
2019-05-07T07:25:11.911Z,67.50
2019-05-07T07:26:12.638Z,67.50
2019-05-07T07:27:13.004Z,67.50
2019-05-07T07:28:12.355Z,67.50
2019-05-07T07:29:12.747Z,73.13
2019-05-07T07:30:12.826Z,73.13
2019-05-07T07:31:12.842Z,73.13
2019-05-07T07:32:12.710Z,73.13
2019-05-07T07:33:12.115Z,73.13
2019-05-07T07:34:12.831Z,73.13
2019-05-07T07:35:12.874Z,73.13
2019-05-07T07:36:12.021Z,73.13
2019-05-07T07:37:15.785Z,73.13
2019-05-07T07:38:11.804Z,73.13
2019-05-07T07:39:12.565Z,73.13
2019-05-07T07:40:12.707Z,73.13
2019-05-07T07:41:12.599Z,73.13
2019-05-07T07:42:12.261Z,73.13
2019-05-07T07:43:10.241Z,73.13
2019-05-07T07:44:10.199Z,73.13
2019-05-07T07:45:12.304Z,67.50
2019-05-07T07:46:10.102Z,67.50
2019-05-07T07:47:10.059Z,73.13
2019-05-07T07:48:10.013Z,78.75
2019-05-07T07:49:12.457Z,73.13
2019-05-07T07:50:09.923Z,78.75
2019-05-07T07:51:09.876Z,78.75
2019-05-07T07:52:12.074Z,78.75
2019-05-07T07:53:09.838Z,78.75
2019-05-07T07:54:09.750Z,84.38
2019-05-07T07:55:09.695Z,90.00
2019-05-07T07:56:12.014Z,84.38
2019-05-07T07:57:09.605Z,78.75
2019-05-07T07:58:11.929Z,78.75
2019-05-07T07:59:09.514Z,84.38
2019-05-07T08:00:11.816Z,73.13
2019-05-07T08:01:09.423Z,73.13
2019-05-07T08:02:09.381Z,78.75
2019-05-07T08:03:09.336Z,78.75
2019-05-07T08:04:09.288Z,61.88
2019-05-07T08:05:09.244Z,56.25
2019-05-07T08:06:09.198Z,56.25
2019-05-07T08:07:09.157Z,50.63
2019-05-07T08:08:09.108Z,56.25
2019-05-07T08:09:09.068Z,50.63
2019-05-07T08:10:09.016Z,50.63
2019-05-07T08:11:08.977Z,45.00
2019-05-07T08:12:08.928Z,39.38
2019-05-07T08:13:08.901Z,39.38
2019-05-07T08:14:08.837Z,39.38
2019-05-07T08:15:16.710Z,39.38
2019-05-07T08:16:08.751Z,39.38
2019-05-07T08:17:08.702Z,39.38
2019-05-07T08:18:08.662Z,39.38
2019-05-07T08:19:19.379Z,39.38
2019-05-07T08:20:08.569Z,45.00
2019-05-07T08:21:08.522Z,45.00
2019-05-07T08:22:08.479Z,45.00
2019-05-07T08:23:08.434Z,45.00
2019-05-07T08:24:08.388Z,45.00
2019-05-07T08:25:08.342Z,45.00
2019-05-07T08:26:08.298Z,45.00
2019-05-07T08:27:08.251Z,45.00
2019-05-07T08:28:08.208Z,45.00
2019-05-07T08:29:08.163Z,45.00
2019-05-07T08:30:08.138Z,50.63
2019-05-07T08:31:08.077Z,56.25
2019-05-07T08:32:08.030Z,56.25
2019-05-07T08:33:09.774Z,61.88
2019-05-07T08:34:07.940Z,61.88
2019-05-07T08:35:07.892Z,61.88
2019-05-07T08:36:07.847Z,78.75
2019-05-07T08:37:07.805Z,84.38
2019-05-07T08:38:07.756Z,67.50
2019-05-07T08:39:07.712Z,67.50
2019-05-07T08:40:07.667Z,61.88
2019-05-07T08:41:07.622Z,61.88
2019-05-07T08:42:07.576Z,61.88
2019-05-07T08:43:07.532Z,67.50
2019-05-07T08:44:11.970Z,67.50
2019-05-07T08:45:07.459Z,67.50
2019-05-07T08:46:07.398Z,67.50
2019-05-07T08:47:07.356Z,67.50
2019-05-07T08:48:07.307Z,61.88
2019-05-07T08:49:07.261Z,56.25
2019-05-07T08:50:07.216Z,50.63
2019-05-07T08:51:07.171Z,45.00
2019-05-07T08:52:07.126Z,45.00
2019-05-07T08:53:07.081Z,33.75
2019-05-07T08:54:07.039Z,28.13
2019-05-07T08:55:06.990Z,28.13
2019-05-07T08:56:06.946Z,22.50
2019-05-07T08:57:06.978Z,22.50
2019-05-07T08:58:06.857Z,16.88
2019-05-07T08:59:06.810Z,16.88
2019-05-07T09:00:06.769Z,16.88
2019-05-07T09:01:06.720Z,16.88
2019-05-07T09:02:06.675Z,16.88
2019-05-07T09:03:19.269Z,16.88
2019-05-07T09:04:06.587Z,16.88
2019-05-07T09:05:09.129Z,16.88
2019-05-07T09:06:06.498Z,16.88
2019-05-07T09:07:06.451Z,16.88
2019-05-07T09:08:06.405Z,16.88
2019-05-07T09:09:06.369Z,16.88
2019-05-07T09:10:06.328Z,16.88
2019-05-07T09:11:06.270Z,16.88
2019-05-07T09:12:06.224Z,16.88
2019-05-07T09:13:06.185Z,16.88
2019-05-07T09:14:06.133Z,16.88
2019-05-07T09:15:06.087Z,22.50
2019-05-07T09:16:06.045Z,22.50
2019-05-07T09:17:05.997Z,22.50
2019-05-07T09:18:05.951Z,22.50
2019-05-07T09:19:05.920Z,28.13
2019-05-07T09:20:09.024Z,28.13
2019-05-07T09:21:05.831Z,28.13
2019-05-07T09:22:05.774Z,33.75
2019-05-07T09:23:05.729Z,33.75
2019-05-07T09:24:05.683Z,33.75
2019-05-07T09:25:05.635Z,33.75
2019-05-07T09:26:05.589Z,39.38
2019-05-07T09:27:05.546Z,45.00
2019-05-07T09:28:05.497Z,45.00
2019-05-07T09:29:05.457Z,45.00
2019-05-07T09:30:05.404Z,45.00
2019-05-07T09:31:05.357Z,50.63
2019-05-07T09:32:05.314Z,50.63
2019-05-07T09:33:05.269Z,50.63
2019-05-07T09:34:05.222Z,56.25
2019-05-07T09:35:05.174Z,56.25
2019-05-07T09:36:05.129Z,56.25
2019-05-07T09:37:05.083Z,61.88
2019-05-07T09:38:05.037Z,61.88
2019-05-07T09:39:04.993Z,61.88
2019-05-07T09:40:04.948Z,61.88
2019-05-07T09:41:04.900Z,67.50
2019-05-07T09:42:04.855Z,73.13
2019-05-07T09:43:04.808Z,67.50
2019-05-07T09:44:04.761Z,67.50
2019-05-07T09:45:04.717Z,67.50
2019-05-07T09:46:04.672Z,73.13
2019-05-07T09:47:04.653Z,73.13
2019-05-07T09:48:04.711Z,73.13
2019-05-07T09:49:04.531Z,67.50
2019-05-07T09:50:07.818Z,67.50
2019-05-07T09:51:04.450Z,67.50
2019-05-07T09:52:05.975Z,67.50
2019-05-07T09:53:04.351Z,67.50
2019-05-07T09:54:04.302Z,67.50
2019-05-07T09:55:14.132Z,67.50
2019-05-07T09:56:04.214Z,73.13
2019-05-07T09:57:04.169Z,73.13
2019-05-07T09:58:04.119Z,78.75
2019-05-07T09:59:04.079Z,73.13
2019-05-07T10:00:04.028Z,73.13
2019-05-07T10:01:03.988Z,78.75
2019-05-07T10:02:03.937Z,78.75
2019-05-07T10:03:03.893Z,84.38
2019-05-07T10:04:03.873Z,90.00
2019-05-07T10:05:03.805Z,90.00
2019-05-07T10:06:03.754Z,90.00
2019-05-07T10:07:03.710Z,90.00
2019-05-07T10:08:03.664Z,90.00
2019-05-07T10:09:03.617Z,95.63
2019-05-07T10:10:03.574Z,101.25
2019-05-07T10:11:03.528Z,101.25
2019-05-07T10:12:03.481Z,95.63
2019-05-07T10:13:03.435Z,101.25
2019-05-07T10:14:03.388Z,106.88
2019-05-07T10:15:03.349Z,106.88
2019-05-07T10:16:04.267Z,112.50
2019-05-07T10:17:03.254Z,118.13
2019-05-07T10:18:03.210Z,118.13
2019-05-07T10:19:03.159Z,123.75
2019-05-07T10:20:11.616Z,129.38
2019-05-07T10:21:03.069Z,129.38
2019-05-07T10:22:03.022Z,146.25
2019-05-07T10:23:02.980Z,151.88
2019-05-07T10:24:02.938Z,140.63
2019-05-07T10:25:03.096Z,151.88
2019-05-07T10:26:02.843Z,163.13
2019-05-07T10:27:02.803Z,151.88
2019-05-07T10:28:02.753Z,151.88
2019-05-07T10:29:02.710Z,135.00
2019-05-07T10:30:02.731Z,123.75
2019-05-07T10:31:02.620Z,123.75
2019-05-07T10:32:02.574Z,123.75
2019-05-07T10:33:02.537Z,129.38
2019-05-07T10:34:03.053Z,123.75
2019-05-07T10:35:02.465Z,118.13
2019-05-07T10:36:02.395Z,118.13
2019-05-07T10:37:02.764Z,123.75
2019-05-07T10:38:02.311Z,129.38
2019-05-07T10:39:02.576Z,151.88
2019-05-07T10:40:03.107Z,140.63
2019-05-07T10:41:02.855Z,168.75
2019-05-07T10:42:02.130Z,151.88
2019-05-07T10:43:02.084Z,151.88
2019-05-07T10:44:02.531Z,157.50
2019-05-07T10:45:03.067Z,163.13
2019-05-07T10:46:02.415Z,174.38
2019-05-07T10:47:02.092Z,168.75
2019-05-07T10:48:02.543Z,180.00
2019-05-07T10:49:02.082Z,185.63
2019-05-07T10:50:02.852Z,180.00
2019-05-07T10:51:02.155Z,168.75
2019-05-07T10:52:02.186Z,123.75
2019-05-07T10:53:02.122Z,123.75
2019-05-07T10:54:02.268Z,101.25
2019-05-07T10:55:02.872Z,95.63
2019-05-07T10:56:02.727Z,90.00
2019-05-07T10:57:01.462Z,90.00
2019-05-07T10:58:03.023Z,90.00
2019-05-07T10:59:02.867Z,84.38
2019-05-07T11:00:03.220Z,78.75
2019-05-07T11:01:02.931Z,73.13
2019-05-07T11:02:02.429Z,67.50
2019-05-07T11:03:02.403Z,67.50
2019-05-07T11:04:02.194Z,61.88
2019-05-07T11:05:02.280Z,61.88
2019-05-07T11:06:01.067Z,67.50
2019-05-07T11:07:01.023Z,67.50
2019-05-07T11:08:02.335Z,67.50
2019-05-07T11:09:00.936Z,67.50
2019-05-07T11:10:01.946Z,67.50
2019-05-07T11:11:02.709Z,67.50
2019-05-07T11:12:02.554Z,61.88
2019-05-07T11:13:02.319Z,56.25
2019-05-07T11:14:01.917Z,50.63
2019-05-07T11:15:02.174Z,45.00
2019-05-07T11:16:02.438Z,45.00
2019-05-07T11:17:02.502Z,39.38
2019-05-07T11:18:02.556Z,39.38
2019-05-07T11:19:02.046Z,33.75
2019-05-07T11:20:00.451Z,28.13
2019-05-07T11:21:00.409Z,28.13
2019-05-07T11:22:00.369Z,22.50
2019-05-07T11:23:02.490Z,22.50
2019-05-07T11:24:00.278Z,22.50
2019-05-07T11:25:02.860Z,22.50
2019-05-07T11:26:02.392Z,22.50
2019-05-07T11:27:02.315Z,22.50
2019-05-07T11:28:00.098Z,22.50
2019-05-07T11:29:02.235Z,22.50
2019-05-07T11:30:00.009Z,22.50
2019-05-07T11:31:01.896Z,22.50
2019-05-07T11:31:59.920Z,22.50
2019-05-07T11:32:59.879Z,22.50
2019-05-07T11:33:59.830Z,22.50
2019-05-07T11:34:59.789Z,22.50
2019-05-07T11:36:01.989Z,22.50
2019-05-07T11:36:59.702Z,28.13
2019-05-07T11:37:59.671Z,28.13
2019-05-07T11:39:01.706Z,28.13
2019-05-07T11:39:59.563Z,28.13
2019-05-07T11:40:59.518Z,28.13
2019-05-07T11:41:59.472Z,28.13
2019-05-07T11:42:59.427Z,22.50
2019-05-07T11:44:01.645Z,22.50
2019-05-07T11:44:59.346Z,22.50
2019-05-07T11:45:59.328Z,22.50
2019-05-07T11:46:59.249Z,22.50
2019-05-07T11:47:59.204Z,22.50
2019-05-07T11:48:59.159Z,22.50
2019-05-07T11:49:59.113Z,22.50
2019-05-07T11:51:03.727Z,28.13
2019-05-07T11:51:59.021Z,28.13
2019-05-07T11:52:58.985Z,28.13
2019-05-07T11:53:58.935Z,33.75
2019-05-07T11:54:58.938Z,33.75
2019-05-07T11:55:58.843Z,39.38
2019-05-07T11:56:58.799Z,39.38
2019-05-07T11:57:58.750Z,45.00
2019-05-07T11:58:58.705Z,50.63
2019-05-07T11:59:58.684Z,50.63
2019-05-07T12:00:58.692Z,50.63
2019-05-07T12:01:58.620Z,50.63
2019-05-07T12:02:58.563Z,50.63
2019-05-07T12:03:58.543Z,50.63
2019-05-07T12:04:58.506Z,56.25
2019-05-07T12:05:58.476Z,56.25
2019-05-07T12:06:58.371Z,61.88
2019-05-07T12:07:58.362Z,61.88
2019-05-07T12:08:58.383Z,67.50
2019-05-07T12:09:58.279Z,78.75
2019-05-07T12:10:58.221Z,78.75
2019-05-07T12:11:58.164Z,84.38
2019-05-07T12:12:58.100Z,90.00
2019-05-07T12:13:58.052Z,101.25
2019-05-07T12:14:58.001Z,123.75
2019-05-07T12:15:57.988Z,140.63
2019-05-07T12:16:57.906Z,157.50
2019-05-07T12:17:57.878Z,185.63
2019-05-07T12:18:57.824Z,174.38
2019-05-07T12:19:57.789Z,168.75
2019-05-07T12:20:57.747Z,168.75
2019-05-07T12:21:57.659Z,163.13
2019-05-07T12:22:57.617Z,151.88
2019-05-07T12:23:57.598Z,157.50
2019-05-07T12:24:57.576Z,157.50
2019-05-07T12:25:57.522Z,157.50
2019-05-07T12:26:57.440Z,157.50
2019-05-07T12:27:57.394Z,151.88
2019-05-07T12:28:57.344Z,151.88
2019-05-07T12:29:57.301Z,163.13
2019-05-07T12:30:57.257Z,174.38
2019-05-07T12:31:57.213Z,196.88
2019-05-07T12:32:57.172Z,258.75
2019-05-07T12:33:57.129Z,309.38
2019-05-07T12:34:57.124Z,326.25
2019-05-07T12:35:57.058Z,331.88
2019-05-07T12:36:57.023Z,371.25
2019-05-07T12:37:56.964Z,382.50
2019-05-07T12:38:56.904Z,382.50
2019-05-07T12:39:56.859Z,399.38
2019-05-07T12:40:56.816Z,405.00
2019-05-07T12:41:56.772Z,410.63
2019-05-07T12:42:56.774Z,410.63
2019-05-07T12:43:56.685Z,410.63
2019-05-07T12:44:56.643Z,405.00
2019-05-07T12:45:56.601Z,416.25
2019-05-07T12:46:56.557Z,410.63
2019-05-07T12:47:56.516Z,410.63
2019-05-07T12:48:56.474Z,427.50
2019-05-07T12:49:56.432Z,438.75
2019-05-07T12:50:56.391Z,438.75
2019-05-07T12:51:56.358Z,438.75
2019-05-07T12:52:56.593Z,360.00
2019-05-07T12:53:56.369Z,168.75
2019-05-07T12:54:56.227Z,163.13
2019-05-07T12:55:56.270Z,168.75
2019-05-07T12:56:56.148Z,191.25
2019-05-07T12:57:56.107Z,376.88
2019-05-07T12:58:56.150Z,270.00
2019-05-07T12:59:56.028Z,292.50
2019-05-07T13:00:56.098Z,191.25
2019-05-07T13:01:55.948Z,174.38
2019-05-07T13:02:55.957Z,174.38
2019-05-07T13:03:55.867Z,191.25
2019-05-07T13:04:58.058Z,253.13